createdAt,value
2019-04-05T00:02:06.264Z,11.17
2019-04-05T00:04:35.168Z,7.97
2019-04-05T00:07:03.987Z,9.40
2019-04-05T00:09:32.863Z,12.50
2019-04-05T00:12:01.769Z,10.63
2019-04-05T00:14:30.748Z,10.80
2019-04-05T00:16:59.696Z,8.73
2019-04-05T00:19:29.139Z,9.20
2019-04-05T00:21:58.000Z,8.77
2019-04-05T00:24:26.904Z,9.03
2019-04-05T00:26:55.748Z,12.70
2019-04-05T00:29:24.763Z,9.73
2019-04-05T00:31:53.627Z,12.43
2019-04-05T00:34:22.515Z,21.87
2019-04-05T00:36:51.408Z,11.93
2019-04-05T00:39:20.287Z,10.03
2019-04-05T00:41:49.173Z,15.17
2019-04-05T00:44:18.079Z,12.43
2019-04-05T00:46:46.918Z,11.17
2019-04-05T00:49:15.952Z,11.20
2019-04-05T00:51:44.826Z,12.53
2019-04-05T00:54:13.727Z,10.87
2019-04-05T00:56:42.660Z,9.87
2019-04-05T00:59:12.503Z,9.20
2019-04-05T01:01:41.695Z,9.77
2019-04-05T01:04:10.553Z,10.97
2019-04-05T01:06:39.607Z,10.03
2019-04-05T01:09:08.842Z,9.83
2019-04-05T01:11:37.820Z,12.70
2019-04-05T01:14:06.779Z,10.93
2019-04-05T01:16:36.782Z,13.07
2019-04-05T01:19:05.658Z,10.80
2019-04-05T01:21:37.432Z,8.80
2019-04-05T01:24:07.534Z,12.60
2019-04-05T01:26:38.485Z,11.97
2019-04-05T01:29:07.340Z,11.77
2019-04-05T01:31:36.201Z,9.90
2019-04-05T01:34:05.699Z,10.23
2019-04-05T01:36:34.657Z,9.70
2019-04-05T01:39:03.674Z,14.07
2019-04-05T01:41:32.639Z,8.93
2019-04-05T01:44:01.468Z,10.20
2019-04-05T01:46:32.551Z,9.30
2019-04-05T01:49:01.591Z,12.37
2019-04-05T01:51:30.544Z,9.13
2019-04-05T01:53:59.391Z,11.10
2019-04-05T01:56:28.297Z,11.03
2019-04-05T01:58:57.179Z,11.67
2019-04-05T02:01:26.075Z,10.63
2019-04-05T02:03:55.035Z,11.87
2019-04-05T02:06:23.970Z,10.30
2019-04-05T02:08:52.832Z,12.47
2019-04-05T02:11:21.931Z,10.23
2019-04-05T02:13:50.858Z,10.57
2019-04-05T02:16:19.754Z,11.73
2019-04-05T02:18:48.686Z,9.70
2019-04-05T02:21:17.632Z,15.03
2019-04-05T02:23:46.572Z,11.50
2019-04-05T02:26:15.496Z,18.03
2019-04-05T02:28:44.425Z,18.53
2019-04-05T02:31:15.939Z,10.60
2019-04-05T02:33:48.024Z,9.60
2019-04-05T02:36:17.181Z,14.53
2019-04-05T02:38:46.128Z,10.10
2019-04-05T02:41:16.355Z,13.50
2019-04-05T02:43:47.065Z,12.33
2019-04-05T02:46:23.850Z,10.83
2019-04-05T02:48:50.094Z,12.47
2019-04-05T02:51:21.909Z,10.93
2019-04-05T02:53:52.440Z,12.37
2019-04-05T02:56:22.167Z,10.43
2019-04-05T02:58:51.789Z,13.90
2019-04-05T03:01:22.733Z,13.13
2019-04-05T03:03:51.604Z,10.43
2019-04-05T03:06:20.626Z,10.13
2019-04-05T03:08:49.731Z,12.30
2019-04-05T03:11:20.468Z,8.03
2019-04-05T03:13:51.990Z,10.80
2019-04-05T03:16:40.137Z,9.97
2019-04-05T03:19:06.259Z,15.00
2019-04-05T03:21:38.468Z,14.10
2019-04-05T03:24:10.268Z,10.00
2019-04-05T03:26:42.044Z,14.73
2019-04-05T03:29:11.228Z,11.50
2019-04-05T03:31:40.763Z,9.63
2019-04-05T03:34:09.819Z,11.37
2019-04-05T03:36:39.905Z,11.27
2019-04-05T03:39:08.904Z,12.57
2019-04-05T03:41:37.978Z,10.43
2019-04-05T03:44:08.406Z,10.80
2019-04-05T03:46:37.446Z,12.33
2019-04-05T03:49:07.168Z,14.97
2019-04-05T03:51:36.068Z,10.40
2019-04-05T03:54:05.969Z,15.17
2019-04-05T03:56:38.045Z,26.23
2019-04-05T03:59:06.909Z,24.77
2019-04-05T04:01:36.238Z,48.77
2019-04-05T04:04:05.565Z,56.77
2019-04-05T04:06:34.742Z,45.23
2019-04-05T04:09:04.601Z,74.03
2019-04-05T04:11:33.527Z,89.97
2019-04-05T04:14:02.900Z,82.83
2019-04-05T04:16:31.820Z,136.27
2019-04-05T04:19:01.360Z,123.37
2019-04-05T04:21:36.408Z,105.13
2019-04-05T04:24:05.620Z,98.57
2019-04-05T04:26:34.987Z,68.20
2019-04-05T04:29:03.881Z,79.30
2019-04-05T04:31:32.767Z,65.50
2019-04-05T04:34:01.979Z,141.77
2019-04-05T04:36:31.131Z,102.30
2019-04-05T04:39:00.467Z,64.00
2019-04-05T04:41:32.108Z,110.40
2019-04-05T04:44:01.587Z,92.03
2019-04-05T04:46:31.017Z,167.33
2019-04-05T04:49:00.048Z,200.73
2019-04-05T04:51:30.091Z,121.77
2019-04-05T04:54:01.625Z,102.03
2019-04-05T04:56:30.909Z,139.50
2019-04-05T04:58:59.754Z,67.07
2019-04-05T05:01:28.751Z,76.40
2019-04-05T05:03:57.638Z,39.87
2019-04-05T05:06:26.704Z,44.20
2019-04-05T05:08:55.708Z,67.90
2019-04-05T05:11:25.220Z,51.63
2019-04-05T05:13:54.241Z,59.57
2019-04-05T05:16:23.302Z,45.33
2019-04-05T05:18:52.587Z,31.73
2019-04-05T05:21:21.724Z,27.47
2019-04-05T05:23:51.100Z,28.10
2019-04-05T05:26:20.364Z,17.37
2019-04-05T05:28:49.355Z,17.73
2019-04-05T05:31:18.612Z,15.37
2019-04-05T05:33:48.058Z,15.83
2019-04-05T05:36:17.491Z,14.43
2019-04-05T05:38:46.607Z,13.90
2019-04-05T05:41:15.529Z,15.30
2019-04-05T05:43:44.511Z,14.93
2019-04-05T05:46:13.402Z,16.20
2019-04-05T05:48:43.000Z,12.73
2019-04-05T05:51:11.900Z,18.00
2019-04-05T05:53:40.859Z,15.07
2019-04-05T05:56:09.760Z,18.70
2019-04-05T05:58:38.639Z,21.43
2019-04-05T06:01:07.551Z,18.30
2019-04-05T06:03:36.460Z,20.30
2019-04-05T06:06:05.552Z,19.67
2019-04-05T06:08:34.528Z,17.60
2019-04-05T06:11:03.590Z,17.43
2019-04-05T06:13:32.556Z,15.90
2019-04-05T06:16:01.447Z,17.07
2019-04-05T06:18:30.352Z,18.07
2019-04-05T06:20:59.299Z,21.03
2019-04-05T06:23:33.816Z,25.83
2019-04-05T06:25:58.711Z,18.27
2019-04-05T06:28:27.689Z,24.23
2019-04-05T06:30:56.680Z,19.57
2019-04-05T06:33:31.526Z,22.23
2019-04-05T06:35:56.128Z,15.23
2019-04-05T06:38:25.087Z,17.60
2019-04-05T06:40:53.895Z,21.50
2019-04-05T06:43:22.788Z,17.57
2019-04-05T06:45:51.803Z,16.93
2019-04-05T06:48:20.701Z,17.33
2019-04-05T06:50:49.596Z,25.17
2019-04-05T06:53:18.645Z,16.43
2019-04-05T06:55:47.588Z,19.67
2019-04-05T06:58:20.183Z,20.67
2019-04-05T07:00:56.822Z,20.67
2019-04-05T07:03:17.627Z,15.73
2019-04-05T07:05:46.544Z,21.17
2019-04-05T07:08:18.160Z,21.83
2019-04-05T07:10:46.014Z,19.60
2019-04-05T07:13:14.970Z,18.73
2019-04-05T07:15:43.795Z,18.13
2019-04-05T07:18:12.807Z,23.57
2019-04-05T07:20:41.828Z,21.77
2019-04-05T07:23:10.728Z,27.70
2019-04-05T07:25:39.668Z,17.33
2019-04-05T07:28:08.561Z,18.50
2019-04-05T07:30:37.483Z,21.40
2019-04-05T07:33:06.413Z,16.80
2019-04-05T07:35:35.336Z,22.30
2019-04-05T07:38:04.428Z,23.23
2019-04-05T07:40:33.335Z,18.87
2019-04-05T07:43:02.262Z,23.00
2019-04-05T07:45:31.191Z,23.53
2019-04-05T07:48:00.148Z,21.63
2019-04-05T07:50:29.010Z,15.57
2019-04-05T07:52:57.904Z,24.33
2019-04-05T07:55:26.814Z,17.87
2019-04-05T07:57:55.779Z,21.20
2019-04-05T08:00:45.635Z,20.47
2019-04-05T08:03:14.647Z,15.87
2019-04-05T08:05:44.411Z,17.77
2019-04-05T08:08:28.261Z,21.17
2019-04-05T08:10:58.500Z,18.27
2019-04-05T08:13:29.724Z,19.97
2019-04-05T08:16:01.322Z,21.57
2019-04-05T08:18:30.460Z,17.70
2019-04-05T08:20:59.312Z,16.40
2019-04-05T08:23:28.287Z,17.03
2019-04-05T08:25:57.224Z,18.50
2019-04-05T08:28:26.147Z,15.63
2019-04-05T08:30:55.029Z,16.73
2019-04-05T08:33:23.950Z,20.70
2019-04-05T08:35:52.897Z,18.00
2019-04-05T08:38:21.801Z,17.57
2019-04-05T08:40:50.692Z,19.77
2019-04-05T08:43:19.589Z,18.63
2019-04-05T08:45:48.476Z,16.27
2019-04-05T08:48:17.340Z,17.27
2019-04-05T08:50:46.259Z,21.20
2019-04-05T08:53:15.185Z,18.07
2019-04-05T08:55:44.076Z,24.30
2019-04-05T08:58:13.000Z,22.43
2019-04-05T09:00:41.900Z,18.93
2019-04-05T09:03:12.068Z,19.63
2019-04-05T09:05:41.155Z,19.73
2019-04-05T09:08:10.089Z,14.20
2019-04-05T09:10:38.973Z,17.73
2019-04-05T09:13:07.873Z,20.70
2019-04-05T09:15:36.742Z,20.23
2019-04-05T09:18:05.669Z,15.03
2019-04-05T09:20:34.588Z,16.93
2019-04-05T09:23:03.498Z,19.47
2019-04-05T09:25:32.359Z,17.37
2019-04-05T09:28:01.306Z,17.40
2019-04-05T09:30:30.188Z,17.33
2019-04-05T09:32:59.147Z,17.13
2019-04-05T09:35:27.986Z,14.27
2019-04-05T09:37:56.935Z,17.33
2019-04-05T09:40:25.923Z,17.20
2019-04-05T09:42:54.810Z,18.40
2019-04-05T09:45:23.739Z,17.37
2019-04-05T09:47:52.612Z,17.90
2019-04-05T09:50:21.547Z,14.73
2019-04-05T09:52:50.507Z,19.07
2019-04-05T09:55:19.438Z,16.57
2019-04-05T09:57:48.464Z,14.53
2019-04-05T10:00:24.998Z,15.83
2019-04-05T10:02:53.856Z,21.37
2019-04-05T10:05:22.850Z,14.27
2019-04-05T10:07:55.246Z,21.57
2019-04-05T10:10:22.315Z,16.97
2019-04-05T10:12:51.221Z,21.30
2019-04-05T10:15:21.753Z,12.33
2019-04-05T10:17:51.456Z,18.47
2019-04-05T10:20:21.199Z,16.70
2019-04-05T10:22:50.130Z,17.33
2019-04-05T10:25:19.048Z,19.93
2019-04-05T10:27:47.927Z,19.40
2019-04-05T10:30:17.807Z,14.33
2019-04-05T10:32:46.705Z,13.70
2019-04-05T10:35:15.715Z,19.20
2019-04-05T10:37:44.583Z,11.90
2019-04-05T10:40:14.260Z,18.13
2019-04-05T10:42:43.113Z,18.23
2019-04-05T10:45:14.025Z,13.90
2019-04-05T10:47:42.925Z,16.47
2019-04-05T10:50:14.046Z,14.97
2019-04-05T10:52:42.894Z,14.60
2019-04-05T10:55:12.363Z,20.87
2019-04-05T10:57:41.287Z,13.10
2019-04-05T11:00:13.980Z,15.13
2019-04-05T11:02:42.836Z,17.83
2019-04-05T11:05:12.098Z,15.43
2019-04-05T11:07:41.045Z,19.23
2019-04-05T11:10:10.188Z,15.23
2019-04-05T11:12:39.214Z,17.40
2019-04-05T11:15:08.519Z,13.83
2019-04-05T11:17:37.459Z,13.90
2019-04-05T11:20:21.053Z,15.67
2019-04-05T11:22:41.685Z,13.37
2019-04-05T11:25:11.447Z,11.27
2019-04-05T11:27:40.327Z,15.40
2019-04-05T11:30:10.447Z,14.07
2019-04-05T11:32:39.607Z,13.07
2019-04-05T11:35:09.330Z,11.47
2019-04-05T11:37:39.767Z,11.90
2019-04-05T11:40:11.007Z,13.60
2019-04-05T11:42:41.089Z,12.47
2019-04-05T11:45:10.619Z,10.23
2019-04-05T11:47:41.061Z,10.97
2019-04-05T11:50:14.380Z,12.83
2019-04-05T11:52:43.279Z,15.03
2019-04-05T11:55:12.323Z,11.63
2019-04-05T11:57:41.941Z,10.47
2019-04-05T12:00:14.575Z,9.80
2019-04-05T12:02:48.018Z,12.13
2019-04-05T12:05:17.948Z,10.00
2019-04-05T12:07:46.835Z,10.57
2019-04-05T12:10:18.712Z,9.50
2019-04-05T12:12:46.437Z,9.30
2019-04-05T12:15:15.282Z,9.00
2019-04-05T12:17:44.204Z,12.43
2019-04-05T12:20:13.919Z,11.53
2019-04-05T12:22:42.954Z,14.00
2019-04-05T12:25:13.368Z,9.00
2019-04-05T12:27:42.333Z,13.93
2019-04-05T12:30:13.127Z,12.80
2019-04-05T12:32:42.039Z,13.63
2019-04-05T12:35:11.047Z,16.80
2019-04-05T12:37:49.637Z,16.03
2019-04-05T12:40:14.522Z,13.73
2019-04-05T12:42:43.518Z,10.90
2019-04-05T12:45:15.331Z,11.67
2019-04-05T12:47:45.399Z,13.23
2019-04-05T12:50:14.473Z,17.23
2019-04-05T12:52:44.308Z,9.17
2019-04-05T12:55:13.637Z,13.63
2019-04-05T12:57:42.479Z,11.30
2019-04-05T13:00:14.966Z,14.23
2019-04-05T13:02:44.083Z,11.20
2019-04-05T13:05:13.602Z,11.80
2019-04-05T13:07:42.499Z,13.03
2019-04-05T13:10:12.292Z,13.00
2019-04-05T13:12:41.238Z,12.93
2019-04-05T13:15:15.378Z,10.80
2019-04-05T13:17:41.023Z,12.63
2019-04-05T13:20:10.448Z,12.10
2019-04-05T13:22:49.436Z,18.70
2019-04-05T13:25:18.356Z,13.90
2019-04-05T13:27:47.275Z,12.07
2019-04-05T13:30:18.367Z,17.77
2019-04-05T13:32:46.847Z,10.17
2019-04-05T13:35:16.941Z,11.50
2019-04-05T13:37:46.168Z,11.10
2019-04-05T13:40:15.483Z,14.93
2019-04-05T13:42:44.484Z,16.37
2019-04-05T13:45:14.448Z,10.87
2019-04-05T13:47:43.328Z,10.60
2019-04-05T13:50:12.412Z,13.67
2019-04-05T13:52:42.339Z,17.67
2019-04-05T13:55:11.598Z,15.43
2019-04-05T13:57:41.043Z,12.60
2019-04-05T14:00:11.220Z,15.77
2019-04-05T14:02:40.058Z,14.73
2019-04-05T14:05:09.551Z,12.80
2019-04-05T14:07:38.385Z,11.27
2019-04-05T14:10:10.498Z,13.67
2019-04-05T14:12:40.102Z,16.90
2019-04-05T14:15:11.340Z,13.93
2019-04-05T14:17:44.015Z,15.13
2019-04-05T14:20:10.755Z,12.60
2019-04-05T14:22:39.341Z,15.30
2019-04-05T14:25:08.211Z,14.87
2019-04-05T14:27:38.393Z,13.20
2019-04-05T14:30:07.886Z,16.47
2019-04-05T14:32:36.586Z,16.20
2019-04-05T14:35:08.242Z,15.40
2019-04-05T14:37:37.499Z,23.47
2019-04-05T14:40:08.035Z,24.00
2019-04-05T14:42:36.909Z,17.90
2019-04-05T14:45:07.691Z,16.13
2019-04-05T14:47:36.499Z,17.17
2019-04-05T14:50:09.014Z,16.00
2019-04-05T14:52:37.913Z,19.30
2019-04-05T15:38:03.379Z,16.07
2019-04-05T15:40:32.259Z,32.93
2019-04-05T15:43:01.228Z,14.43
2019-04-05T15:45:30.205Z,16.87
2019-04-05T15:47:59.046Z,16.73
2019-04-05T15:50:28.039Z,15.80
2019-04-05T15:52:56.929Z,22.27
2019-04-05T15:55:25.894Z,16.13
2019-04-05T15:57:54.780Z,16.90
2019-04-05T16:00:41.729Z,18.90
2019-04-05T16:03:10.754Z,16.77
2019-04-05T16:05:39.975Z,19.07
2019-04-05T16:08:08.975Z,17.03
2019-04-05T16:10:37.989Z,18.23
2019-04-05T16:13:08.230Z,23.83
2019-04-05T16:15:37.409Z,15.37
2019-04-05T16:18:06.317Z,15.53
2019-04-05T16:20:35.217Z,16.77
2019-04-05T16:23:04.215Z,13.23
2019-04-05T16:25:33.111Z,15.77
2019-04-05T16:28:01.950Z,12.10
2019-04-05T16:30:30.909Z,18.33
2019-04-05T16:32:59.798Z,12.50
2019-04-05T16:35:28.734Z,15.40
2019-04-05T16:37:57.575Z,15.60
2019-04-05T16:40:26.477Z,16.90
2019-04-05T16:43:02.294Z,12.30
2019-04-05T16:45:26.077Z,16.63
2019-04-05T16:47:54.973Z,16.97
2019-04-05T16:50:23.927Z,21.60
2019-04-05T16:52:52.880Z,14.50
2019-04-05T16:55:21.739Z,13.77
2019-04-05T16:57:50.648Z,14.30
2019-04-05T17:00:19.888Z,14.60
2019-04-05T17:02:48.880Z,15.27
2019-04-05T17:05:17.779Z,13.00
2019-04-05T17:07:46.696Z,14.40
2019-04-05T17:10:15.798Z,14.57
2019-04-05T17:12:44.859Z,14.30
2019-04-05T17:15:13.927Z,13.83
2019-04-05T17:17:42.782Z,15.63
2019-04-05T17:20:12.585Z,15.77
2019-04-05T17:22:41.494Z,14.43
2019-04-05T17:25:10.591Z,14.57
2019-04-05T17:27:39.617Z,15.47
2019-04-05T17:30:08.874Z,15.70
2019-04-05T17:32:37.858Z,17.17
2019-04-05T17:35:07.662Z,15.77
2019-04-05T17:37:36.807Z,18.60
2019-04-05T17:40:09.167Z,20.13
2019-04-05T17:42:38.043Z,13.47
2019-04-05T17:45:08.753Z,17.30
2019-04-05T17:47:37.768Z,15.07
2019-04-05T17:50:13.808Z,14.83
2019-04-05T17:52:42.692Z,18.40
2019-04-05T17:55:11.891Z,17.50
2019-04-05T17:57:40.969Z,17.50
2019-04-05T18:00:11.757Z,16.53
2019-04-05T18:02:40.624Z,21.07
2019-04-05T18:05:09.719Z,17.33
2019-04-05T18:07:38.646Z,16.70
2019-04-05T18:10:07.907Z,24.57
2019-04-05T18:12:36.908Z,19.43
2019-04-05T18:15:06.706Z,15.97
2019-04-05T18:17:35.810Z,19.40
2019-04-05T18:20:09.627Z,16.97
2019-04-05T18:22:37.394Z,21.37
2019-04-05T18:25:06.905Z,17.33
2019-04-05T18:27:35.797Z,20.30
2019-04-05T18:30:06.976Z,18.03
2019-04-05T18:32:35.918Z,17.03
2019-04-05T18:35:06.187Z,15.07
2019-04-05T18:37:35.399Z,22.23
2019-04-05T18:40:06.833Z,18.00
2019-04-05T18:42:35.710Z,18.77
2019-04-05T18:45:06.797Z,23.13
2019-04-05T18:47:35.801Z,17.73
2019-04-05T18:50:07.579Z,23.27
2019-04-05T18:52:36.579Z,21.80
2019-04-05T18:55:07.276Z,23.70
2019-04-05T18:57:36.187Z,23.80
2019-04-05T19:00:06.996Z,26.17
2019-04-05T19:02:37.686Z,29.73
2019-04-05T19:05:07.926Z,21.17
2019-04-05T19:07:36.931Z,27.00
2019-04-05T19:10:09.018Z,21.00
2019-04-05T19:12:38.153Z,25.37
2019-04-05T19:15:08.633Z,24.37
2019-04-05T19:17:37.498Z,22.40
2019-04-05T19:20:07.985Z,27.47
2019-04-05T19:22:38.451Z,23.30
2019-04-05T19:25:08.173Z,27.60
2019-04-05T19:27:38.745Z,29.13
2019-04-05T21:33:48.332Z,44.80
2019-04-05T21:36:17.237Z,45.30
2019-04-05T21:38:46.279Z,44.27
2019-04-05T21:41:15.171Z,50.90
2019-04-05T21:43:44.094Z,52.20
2019-04-05T21:46:12.943Z,43.37
2019-04-05T21:48:41.836Z,40.63
2019-04-05T21:51:10.771Z,43.53
2019-04-05T21:53:39.692Z,49.37
2019-04-05T21:56:08.627Z,50.67
2019-04-05T21:58:37.568Z,40.77
2019-04-05T22:01:08.695Z,50.83
2019-04-05T22:03:37.777Z,53.07
2019-04-05T22:06:06.931Z,45.10
2019-04-05T22:08:35.877Z,43.43
2019-04-05T22:11:04.738Z,39.60
2019-04-05T22:13:33.615Z,41.63
2019-04-05T22:16:02.510Z,42.57
2019-04-05T22:18:34.926Z,44.57
2019-04-05T22:21:03.841Z,41.73
2019-04-05T22:23:32.779Z,48.60
2019-04-05T22:26:01.641Z,43.27
2019-04-05T22:28:30.548Z,47.37
2019-04-05T22:30:59.450Z,43.90
2019-04-05T22:33:28.378Z,31.33
2019-04-05T22:35:57.308Z,29.13
2019-04-05T22:38:26.216Z,24.80
2019-04-05T22:40:55.067Z,18.53
2019-04-05T22:43:24.013Z,22.40
2019-04-05T22:45:53.278Z,19.57
2019-04-05T22:48:22.197Z,14.07
2019-04-05T22:50:51.065Z,18.97
2019-04-05T22:53:19.983Z,17.17
2019-04-05T22:55:48.867Z,19.43
2019-04-05T22:58:17.797Z,14.77
2019-04-05T23:00:46.642Z,15.50
2019-04-05T23:03:15.532Z,13.93
2019-04-05T23:05:44.433Z,13.17
2019-04-05T23:08:13.291Z,13.07
2019-04-05T23:10:42.218Z,10.10
2019-04-05T23:13:11.211Z,10.90
2019-04-05T23:15:40.083Z,11.50
2019-04-05T23:18:08.931Z,12.80
2019-04-05T23:20:37.877Z,10.97
2019-04-05T23:23:06.769Z,11.13
2019-04-05T23:25:35.726Z,9.83
2019-04-05T23:28:04.650Z,10.43
2019-04-05T23:30:33.763Z,9.07
2019-04-05T23:33:02.700Z,9.17
2019-04-05T23:35:31.599Z,10.50
2019-04-05T23:38:00.434Z,8.50
2019-04-05T23:40:29.317Z,10.03
2019-04-05T23:42:58.472Z,9.67
2019-04-05T23:45:27.457Z,6.33
2019-04-05T23:47:56.615Z,9.13
2019-04-05T23:50:32.582Z,7.57
2019-04-05T23:53:01.476Z,8.40
2019-04-05T23:55:33.465Z,9.17
2019-04-05T23:58:00.856Z,9.43
